Welcome to Northern Hawkes Bay. New Zealand.
PWS Header
      nz Flag



Hit Counter


W3C Valid W3C Valid logo


    Wairoa

Select any of the Stations below to visit their websites.










Historic Data from Weather Underground
Select the location of interest below. Wairoa is the default. Please have patience, this Data is slow to load in.
Northern Hawkes Bay Historical Data
Daily Summary for October 11, 2018 Units:  Metric    English   Both
« Previous Day
Next Day »
Daily Weekly Monthly Yearly Custom
  High: Low: Average:
Temperature: 20.9 °C 7.4 °C 14.8 °C
Dew Point: 14.1 °C 5.8 °C 9.3 °C
Humidity: 94% 46% 71%
Wind Speed: 14.8km/h 0.0km/h 5.3km/h
Wind Gust: 27.0km/h - -
Wind- - South
Pressure: 1014.6 hPa 1005.5 hPa -
Precipitation: 0.0 mm    
Historical Graphs
 
 
Tabular Data for October 11, 2018
Time Temperature Dew Point Pressure Wind Wind Speed Wind Gust Humidity Rainfall Rate (Hourly) solar
00:04 11.9 °C 6.6 °C 1012.4 hPa NNE 5.0 km/h 8.7 km/h 70% 0.0 mm 0.00 W/m2
00:09 11.7 °C 6.4 °C 1012.5 hPa NNE 3.5 km/h 8.7 km/h 70% 0.0 mm 0.00 W/m2
00:14 11.7 °C 6.6 °C 1012.6 hPa North 3.5 km/h 9.7 km/h 71% 0.0 mm 0.00 W/m2
00:19 11.5 °C 6.4 °C 1012.5 hPa North 3.5 km/h 9.7 km/h 71% 0.0 mm 0.00 W/m2
00:24 11.5 °C 6.6 °C 1012.7 hPa North 5.0 km/h 8.7 km/h 72% 0.0 mm 0.00 W/m2
00:29 11.4 °C 6.6 °C 1012.6 hPa NNW 3.5 km/h 7.2 km/h 72% 0.0 mm 0.00 W/m2
00:34 11.3 °C 6.4 °C 1012.8 hPa Calm   7.2 km/h 72% 0.0 mm 0.00 W/m2
00:39 11.2 °C 6.3 °C 1012.8 hPa Calm   6.1 km/h 72% 0.0 mm 0.00 W/m2
00:44 11.0 °C 6.3 °C 1012.9 hPa Calm   3.5 km/h 73% 0.0 mm 0.00 W/m2
00:49 10.8 °C 6.3 °C 1012.8 hPa Calm     74% 0.0 mm 0.00 W/m2
00:54 10.5 °C 6.1 °C 1012.9 hPa Calm     74% 0.0 mm 0.00 W/m2
00:59 10.2 °C 5.8 °C 1012.9 hPa Calm     74% 0.0 mm 0.00 W/m2
01:04 10.2 °C 6.2 °C 1012.9 hPa Calm     76% 0.0 mm 0.00 W/m2
01:09 10.3 °C 6.4 °C 1013.0 hPa NNW 3.5 km/h 7.2 km/h 77% 0.0 mm 0.00 W/m2
01:14 10.4 °C 6.7 °C 1012.8 hPa North 3.5 km/h 7.2 km/h 78% 0.0 mm 0.00 W/m2
01:19 10.5 °C 6.8 °C 1012.9 hPa North 5.0 km/h 9.7 km/h 78% 0.0 mm 0.00 W/m2
01:24 10.5 °C 6.8 °C 1012.9 hPa NNE 3.5 km/h 9.7 km/h 78% 0.0 mm 0.00 W/m2
01:29 10.4 °C 6.7 °C 1012.8 hPa NNE 3.5 km/h 7.2 km/h 78% 0.0 mm 0.00 W/m2
01:34 10.2 °C 6.6 °C 1012.8 hPa NNW 6.1 km/h 7.2 km/h 78% 0.0 mm 0.00 W/m2
01:39 10.2 °C 6.7 °C 1012.9 hPa NNW 3.5 km/h 7.2 km/h 79% 0.0 mm 0.00 W/m2
01:44 10.2 °C 6.9 °C 1012.9 hPa NNW 6.1 km/h 8.7 km/h 80% 0.0 mm 0.00 W/m2
01:49 10.2 °C 6.9 °C 1012.8 hPa NNW 2.6 km/h 8.7 km/h 80% 0.0 mm 0.00 W/m2
01:54 10.2 °C 6.9 °C 1012.8 hPa NNW 5.0 km/h 8.7 km/h 80% 0.0 mm 0.00 W/m2
01:59 10.1 °C 6.8 °C 1012.7 hPa NNW 5.0 km/h 7.2 km/h 80% 0.0 mm 0.00 W/m2
02:04 10.1 °C 6.8 °C 1012.7 hPa North 3.5 km/h 7.2 km/h 80% 0.0 mm 0.00 W/m2
02:09 10.1 °C 6.8 °C 1012.6 hPa North 3.5 km/h 7.2 km/h 80% 0.0 mm 0.00 W/m2
02:14 10.1 °C 6.8 °C 1012.7 hPa North 3.5 km/h 7.2 km/h 80% 0.0 mm 0.00 W/m2
02:19 10.1 °C 6.8 °C 1012.7 hPa North 6.1 km/h 8.7 km/h 80% 0.0 mm 0.00 W/m2
02:24 10.2 °C 6.9 °C 1012.6 hPa NNE 5.0 km/h 9.7 km/h 80% 0.0 mm 0.00 W/m2
02:29 10.3 °C 6.8 °C 1012.6 hPa North 5.0 km/h 9.7 km/h 79% 0.0 mm 0.00 W/m2
02:34 10.3 °C 6.8 °C 1012.6 hPa North 3.5 km/h 9.7 km/h 79% 0.0 mm 0.00 W/m2
02:39 10.3 °C 6.8 °C 1012.5 hPa North 7.2 km/h 9.7 km/h 79% 0.0 mm 0.00 W/m2
02:43 10.5 °C 6.8 °C 1012.5 hPa NNE 7.2 km/h 12.2 km/h 78% 0.0 mm 0.00 W/m2
02:59 10.7 °C 6.8 °C 1012.6 hPa North 6.1 km/h 9.7 km/h 77% 0.0 mm 0.00 W/m2
03:04 10.7 °C 6.7 °C 1012.6 hPa NNE 6.1 km/h 11.1 km/h 76% 0.0 mm 0.00 W/m2
03:09 10.7 °C 6.7 °C 1012.6 hPa North 5.0 km/h 11.1 km/h 76% 0.0 mm 0.00 W/m2
03:14 10.7 °C 6.7 °C 1012.4 hPa North 6.1 km/h 12.2 km/h 76% 0.0 mm 0.00 W/m2
03:19 10.8 °C 6.7 °C 1012.6 hPa North 6.1 km/h 12.2 km/h 76% 0.0 mm 0.00 W/m2
03:24 10.8 °C 6.7 °C 1012.5 hPa North 7.2 km/h 11.1 km/h 76% 0.0 mm 0.00 W/m2
03:29 10.7 °C 6.7 °C 1012.4 hPa NNW 6.1 km/h 12.2 km/h 76% 0.0 mm 0.00 W/m2
03:34 10.6 °C 6.6 °C 1012.4 hPa North 6.1 km/h 12.2 km/h 76% 0.0 mm 0.00 W/m2
03:39 10.5 °C 6.7 °C 1012.5 hPa NNW 6.1 km/h 12.2 km/h 77% 0.0 mm 0.00 W/m2
03:44 10.4 °C 6.6 °C 1012.5 hPa NNW 7.2 km/h 12.2 km/h 77% 0.0 mm 0.00 W/m2
03:49 10.1 °C 6.4 °C 1012.6 hPa NNW 6.1 km/h 12.2 km/h 78% 0.0 mm 0.00 W/m2
03:54 9.8 °C 6.7 °C 1012.6 hPa NNW 5.0 km/h 11.1 km/h 81% 0.0 mm 0.00 W/m2
03:59 9.4 °C 6.5 °C 1012.6 hPa NW 3.5 km/h 8.7 km/h 82% 0.0 mm 0.00 W/m2
04:04 9.2 °C 6.4 °C 1012.6 hPa NW 5.0 km/h 7.2 km/h 83% 0.0 mm 0.00 W/m2
04:09 9.0 °C 6.4 °C 1012.4 hPa NNW 3.5 km/h 7.2 km/h 84% 0.0 mm 0.00 W/m2
04:14 8.8 °C 6.4 °C 1012.5 hPa Calm   6.1 km/h 85% 0.0 mm 0.00 W/m2
04:17 8.7 °C 6.3 °C 1012.6 hPa NNW 2.6 km/h 6.1 km/h 85% 0.0 mm 0.00 W/m2
04:34 8.5 °C 6.4 °C 1012.5 hPa North 5.0 km/h 8.7 km/h 87% 0.0 mm 0.00 W/m2
04:39 8.6 °C 6.7 °C 1012.4 hPa North 6.1 km/h 8.7 km/h 88% 0.0 mm 0.00 W/m2
04:44 8.8 °C 6.9 °C 1012.5 hPa North 3.5 km/h 11.1 km/h 88% 0.0 mm 0.00 W/m2
04:49 8.8 °C 6.8 °C 1012.6 hPa North 3.5 km/h 11.1 km/h 87% 0.0 mm 0.00 W/m2
04:54 9.0 °C 6.8 °C 1012.6 hPa NNW 6.1 km/h 8.7 km/h 86% 0.0 mm 0.00 W/m2
04:59 8.7 °C 6.7 °C 1012.5 hPa NW 3.5 km/h 8.7 km/h 87% 0.0 mm 0.00 W/m2
05:04 8.6 °C 6.6 °C 1012.4 hPa NNW 3.5 km/h 8.7 km/h 87% 0.0 mm 0.00 W/m2
05:09 8.6 °C 6.6 °C 1012.4 hPa NNW 2.6 km/h 6.1 km/h 87% 0.0 mm 0.00 W/m2
05:14 8.6 °C 6.6 °C 1012.5 hPa North 2.6 km/h 6.1 km/h 87% 0.0 mm 0.00 W/m2
05:19 8.5 °C 6.4 °C 1012.5 hPa Calm   6.1 km/h 87% 0.0 mm 0.00 W/m2
05:24 8.4 °C 6.6 °C 1012.6 hPa NNW 2.6 km/h 6.1 km/h 88% 0.0 mm 0.00 W/m2
05:29 8.2 °C 6.3 °C 1012.6 hPa NNW 3.5 km/h 7.2 km/h 88% 0.0 mm 0.00 W/m2
05:34 8.2 °C 6.5 °C 1012.5 hPa North 1.1 km/h 7.2 km/h 89% 0.0 mm 0.00 W/m2
05:39 8.1 °C 6.4 °C 1012.7 hPa North 2.6 km/h 7.2 km/h 89% 0.0 mm 0.00 W/m2
05:44 8.0 °C 6.3 °C 1012.5 hPa North 3.5 km/h 7.2 km/h 89% 0.0 mm 0.00 W/m2
05:49 8.0 °C 6.4 °C 1012.5 hPa NNW 5.0 km/h 7.2 km/h 90% 0.0 mm 0.00 W/m2
05:54 8.0 °C 6.4 °C 1012.5 hPa NW 2.6 km/h 7.2 km/h 90% 0.0 mm 0.00 W/m2
05:59 7.8 °C 6.4 °C 1012.4 hPa NW 5.0 km/h 7.2 km/h 91% 0.0 mm 0.00 W/m2
06:04 7.7 °C 6.3 °C 1012.6 hPa NNW 3.5 km/h 8.7 km/h 91% 0.0 mm 0.00 W/m2
06:09 7.6 °C 6.4 °C 1012.5 hPa NW 6.1 km/h 8.7 km/h 92% 0.0 mm 0.00 W/m2
06:14 7.6 °C 6.4 °C 1012.6 hPa NW 5.0 km/h 9.7 km/h 92% 0.0 mm 0.00 W/m2
06:19 7.5 °C 6.4 °C 1012.7 hPa NNW 7.2 km/h 11.1 km/h 93% 0.0 mm 0.00 W/m2
06:24 7.5 °C 6.4 °C 1012.7 hPa NNW 6.1 km/h 11.1 km/h 93% 0.0 mm 0.00 W/m2
06:29 7.5 °C 6.4 °C 1012.8 hPa NW 5.0 km/h 11.1 km/h 93% 0.0 mm 0.00 W/m2
06:34 7.5 °C 6.4 °C 1012.7 hPa NW 3.5 km/h 8.7 km/h 93% 0.0 mm 1.00 W/m2
06:39 7.5 °C 6.4 °C 1012.9 hPa NNW 3.5 km/h 8.7 km/h 93% 0.0 mm 4.00 W/m2
06:44 7.4 °C 6.3 °C 1012.8 hPa NW 5.0 km/h 8.7 km/h 93% 0.0 mm 8.00 W/m2
06:49 7.4 °C 6.3 °C 1012.8 hPa NNW 2.6 km/h 7.2 km/h 93% 0.0 mm 12.00 W/m2
06:54 7.5 °C 6.6 °C 1013.0 hPa Calm   6.1 km/h 94% 0.0 mm 19.00 W/m2
06:59 7.6 °C 6.7 °C 1013.0 hPa North 3.5 km/h 5.0 km/h 94% 0.0 mm 25.00 W/m2
07:04 7.7 °C 6.8 °C 1013.1 hPa NW 3.5 km/h 6.1 km/h 94% 0.0 mm 32.00 W/m2
07:09 7.8 °C 6.9 °C 1013.1 hPa NW 2.6 km/h 7.2 km/h 94% 0.0 mm 36.00 W/m2
07:14 7.9 °C 6.8 °C 1013.3 hPa NW 3.5 km/h 7.2 km/h 93% 0.0 mm 51.00 W/m2
07:19 8.1 °C 7.1 °C 1013.3 hPa NW 3.5 km/h 6.1 km/h 93% 0.0 mm 61.00 W/m2
07:24 8.3 °C 7.2 °C 1013.3 hPa NNW 2.6 km/h 7.2 km/h 93% 0.0 mm 69.00 W/m2
07:29 8.6 °C 7.6 °C 1013.3 hPa Calm   7.2 km/h 93% 0.0 mm 68.00 W/m2
07:34 9.0 °C 7.6 °C 1013.3 hPa Calm   5.0 km/h 91% 0.0 mm 67.00 W/m2
07:39 9.0 °C 7.4 °C 1013.4 hPa Calm     90% 0.0 mm 74.00 W/m2
07:44 9.2 °C 7.5 °C 1013.5 hPa NW 2.6 km/h 5.0 km/h 89% 0.0 mm 72.00 W/m2
07:49 9.1 °C 7.2 °C 1013.6 hPa NW 5.0 km/h 8.7 km/h 88% 0.0 mm 64.00 W/m2
07:54 9.0 °C 7.1 °C 1013.4 hPa NW 7.2 km/h 11.1 km/h 88% 0.0 mm 64.00 W/m2
07:59 9.0 °C 7.1 °C 1013.7 hPa NW 3.5 km/h 11.1 km/h 88% 0.0 mm 69.00 W/m2
08:04 9.0 °C 7.1 °C 1013.8 hPa NW 6.1 km/h 11.1 km/h 88% 0.0 mm 89.00 W/m2
08:09 9.1 °C 7.2 °C 1013.7 hPa NW 5.0 km/h 9.7 km/h 88% 0.0 mm 73.00 W/m2
08:14 9.3 °C 7.4 °C 1013.7 hPa NW 2.6 km/h 9.7 km/h 88% 0.0 mm 86.00 W/m2
08:19 9.6 °C 7.7 °C 1013.8 hPa NNW 2.6 km/h 8.7 km/h 88% 0.0 mm 144.00 W/m2
08:24 10.3 °C 8.1 °C 1013.9 hPa North 3.5 km/h 8.7 km/h 86% 0.0 mm 181.00 W/m2
08:29 10.9 °C 8.3 °C 1013.7 hPa NNW 9.7 km/h 12.2 km/h 84% 0.0 mm 177.00 W/m2
08:34 11.3 °C 8.2 °C 1013.7 hPa NNW 5.0 km/h 12.2 km/h 81% 0.0 mm 107.00 W/m2
08:39 11.4 °C 7.7 °C 1013.7 hPa NNW 5.0 km/h 11.1 km/h 78% 0.0 mm 148.00 W/m2
08:44 11.4 °C 7.7 °C 1013.9 hPa North 6.1 km/h 11.1 km/h 78% 0.0 mm 135.00 W/m2
08:49 11.6 °C 7.9 °C 1013.9 hPa North 6.1 km/h 11.1 km/h 78% 0.0 mm 161.00 W/m2
08:54 11.8 °C 8.3 °C 1014.1 hPa North 5.0 km/h 11.1 km/h 79% 0.0 mm 122.00 W/m2
08:59 11.9 °C 8.4 °C 1014.2 hPa North 6.1 km/h 11.1 km/h 79% 0.0 mm 158.00 W/m2
09:04 12.1 °C 8.4 °C 1014.0 hPa North 7.2 km/h 11.1 km/h 78% 0.0 mm 184.00 W/m2
09:09 12.5 °C 8.4 °C 1014.2 hPa NNW 9.7 km/h 12.2 km/h 76% 0.0 mm 237.00 W/m2
09:14 13.0 °C 8.9 °C 1014.2 hPa NW 7.2 km/h 13.4 km/h 76% 0.0 mm 269.00 W/m2
09:19 13.8 °C 9.3 °C 1014.1 hPa NNW 7.2 km/h 13.4 km/h 74% 0.0 mm 279.00 W/m2
09:24 14.1 °C 8.5 °C 1014.0 hPa North 8.7 km/h 14.8 km/h 69% 0.0 mm 293.00 W/m2
09:29 14.4 °C 8.6 °C 1014.0 hPa North 8.7 km/h 14.8 km/h 68% 0.0 mm 295.00 W/m2
09:34 14.7 °C 8.8 °C 1014.2 hPa North 5.0 km/h 14.8 km/h 68% 0.0 mm 312.00 W/m2
09:39 15.1 °C 8.8 °C 1014.3 hPa North 8.7 km/h 13.4 km/h 66% 0.0 mm 275.00 W/m2
09:44 15.1 °C 8.6 °C 1014.4 hPa North 7.2 km/h 13.4 km/h 65% 0.0 mm 326.00 W/m2
09:49 15.4 °C 8.8 °C 1014.2 hPa NNW 9.7 km/h 13.4 km/h 65% 0.0 mm 342.00 W/m2
09:54 15.4 °C 8.6 °C 1014.3 hPa NNW 9.7 km/h 14.8 km/h 64% 0.0 mm 354.00 W/m2
09:59 15.8 °C 8.6 °C 1014.5 hPa NNW 8.7 km/h 14.8 km/h 62% 0.0 mm 387.00 W/m2
10:04 16.1 °C 8.6 °C 1014.6 hPa North 8.7 km/h 14.8 km/h 61% 0.0 mm 127.00 W/m2
10:09 16.5 °C 8.7 °C 1014.5 hPa NNW 11.1 km/h 13.4 km/h 60% 0.0 mm 384.00 W/m2
10:14 16.5 °C 8.2 °C 1014.4 hPa North 7.2 km/h 13.4 km/h 58% 0.0 mm 411.00 W/m2
10:19 16.9 °C 8.3 °C 1014.4 hPa North 8.7 km/h 13.4 km/h 57% 0.0 mm 418.00 W/m2
10:24 16.7 °C 8.2 °C 1014.4 hPa North 11.1 km/h 17.2 km/h 57% 0.0 mm 396.00 W/m2
10:29 16.8 °C 8.5 °C 1014.3 hPa North 12.2 km/h 17.2 km/h 58% 0.0 mm 398.00 W/m2
10:34 16.9 °C 8.1 °C 1014.3 hPa North 11.1 km/h 17.2 km/h 56% 0.0 mm 223.00 W/m2
10:39 17.1 °C 7.7 °C 1014.2 hPa North 6.1 km/h 15.8 km/h 54% 0.0 mm 125.00 W/m2
10:44 17.3 °C 8.2 °C 1014.2 hPa NW 5.0 km/h 17.2 km/h 55% 0.0 mm 138.00 W/m2
10:49 17.4 °C 8.3 °C 1014.1 hPa NNW 9.7 km/h 17.2 km/h 55% 0.0 mm 429.00 W/m2
10:54 17.3 °C 7.6 °C 1013.9 hPa North 5.0 km/h 13.4 km/h 53% 0.0 mm 424.00 W/m2
10:59 17.6 °C 8.2 °C 1013.9 hPa North 8.7 km/h 14.8 km/h 54% 0.0 mm 181.00 W/m2
11:04 17.6 °C 8.2 °C 1013.9 hPa North 6.1 km/h 14.8 km/h 54% 0.0 mm 239.00 W/m2
11:09 17.9 °C 8.4 °C 1013.7 hPa NNE 11.1 km/h 13.4 km/h 54% 0.0 mm 362.00 W/m2
11:14 17.7 °C 8.0 °C 1013.7 hPa NNE 9.7 km/h 15.8 km/h 53% 0.0 mm 387.00 W/m2
11:19 17.6 °C 8.2 °C 1013.5 hPa NNE 8.7 km/h 15.8 km/h 54% 0.0 mm 216.00 W/m2
11:24 17.9 °C 8.4 °C 1013.6 hPa NE 7.2 km/h 14.8 km/h 54% 0.0 mm 370.00 W/m2
11:29 17.9 °C 8.2 °C 1013.5 hPa NNE 3.5 km/h 15.8 km/h 53% 0.0 mm 362.00 W/m2
11:34 17.9 °C 8.2 °C 1013.4 hPa North 5.0 km/h 15.8 km/h 53% 0.0 mm 362.00 W/m2
11:39 18.0 °C 8.6 °C 1013.4 hPa NNE 7.2 km/h 13.4 km/h 54% 0.0 mm 458.00 W/m2
11:44 18.0 °C 8.3 °C 1013.1 hPa North 7.2 km/h 13.4 km/h 53% 0.0 mm 610.00 W/m2
11:49 18.6 °C 8.8 °C 1013.3 hPa NNE 6.1 km/h 13.4 km/h 53% 0.0 mm 642.00 W/m2
11:54 19.7 °C 8.7 °C 1013.2 hPa North 6.1 km/h 13.4 km/h 49% 0.0 mm 222.00 W/m2
11:59 19.7 °C 8.4 °C 1013.1 hPa North 9.7 km/h 14.8 km/h 48% 0.0 mm 464.00 W/m2
12:04 19.3 °C 8.0 °C 1013.2 hPa North 6.1 km/h 14.8 km/h 48% 0.0 mm 710.00 W/m2
12:09 19.9 °C 8.6 °C 1013.1 hPa NNE 8.7 km/h 14.8 km/h 48% 0.0 mm 572.00 W/m2
12:14 20.0 °C 8.1 °C 1013.0 hPa NE 2.6 km/h 12.2 km/h 46% 0.0 mm 506.00 W/m2
12:19 19.5 °C 7.6 °C 1012.9 hPa ENE 2.6 km/h 9.7 km/h 46% 0.0 mm 299.00 W/m2
12:24 19.3 °C 7.4 °C 1013.0 hPa NE 3.5 km/h 9.7 km/h 46% 0.0 mm 267.00 W/m2
12:29 19.5 °C 8.2 °C 1012.9 hPa NNE 5.0 km/h 12.2 km/h 48% 0.0 mm 312.00 W/m2
12:34 19.5 °C 8.2 °C 1012.7 hPa NNE 3.5 km/h 12.2 km/h 48% 0.0 mm 634.00 W/m2
12:39 19.8 °C 9.7 °C 1012.6 hPa North 5.0 km/h 11.1 km/h 52% 0.0 mm 734.00 W/m2
12:44 19.6 °C 11.1 °C 1012.7 hPa East 9.7 km/h 15.8 km/h 58% 0.0 mm 736.00 W/m2
12:49 19.2 °C 10.5 °C 1012.6 hPa East 9.7 km/h 17.2 km/h 57% 0.0 mm 454.00 W/m2
12:54 19.0 °C 10.1 °C 1012.6 hPa ESE 8.7 km/h 17.2 km/h 56% 0.0 mm 619.00 W/m2
12:59 18.9 °C 10.2 °C 1012.6 hPa ESE 9.7 km/h 17.2 km/h 57% 0.0 mm 569.00 W/m2
13:04 18.0 °C 9.1 °C 1012.5 hPa ESE 9.7 km/h 18.3 km/h 56% 0.0 mm 569.00 W/m2
13:09 17.7 °C 9.3 °C 1012.7 hPa ESE 8.7 km/h 18.3 km/h 58% 0.0 mm 502.00 W/m2
13:14 17.7 °C 9.1 °C 1012.4 hPa ESE 9.7 km/h 17.2 km/h 57% 0.0 mm 536.00 W/m2
13:19 18.0 °C 9.4 °C 1012.5 hPa ESE 11.1 km/h 15.8 km/h 57% 0.0 mm 580.00 W/m2
13:24 18.4 °C 9.5 °C 1012.4 hPa ESE 8.7 km/h 15.8 km/h 56% 0.0 mm 721.00 W/m2
13:29 18.7 °C 9.8 °C 1012.3 hPa ESE 14.8 km/h 18.3 km/h 56% 0.0 mm 743.00 W/m2
13:34 18.9 °C 9.7 °C 1012.1 hPa ESE 9.7 km/h 18.3 km/h 55% 0.0 mm 565.00 W/m2
13:39 18.3 °C 9.1 °C 1012.3 hPa ESE 8.7 km/h 18.3 km/h 55% 0.0 mm 145.00 W/m2
13:44 18.0 °C 9.1 °C 1012.1 hPa East 6.1 km/h 17.2 km/h 56% 0.0 mm 111.00 W/m2
13:49 17.8 °C 9.7 °C 1012.0 hPa East 7.2 km/h 12.2 km/h 59% 0.0 mm 116.00 W/m2
13:54 17.5 °C 9.4 °C 1012.0 hPa East 9.7 km/h 14.8 km/h 59% 0.0 mm 129.00 W/m2
13:59 17.4 °C 9.8 °C 1012.0 hPa East 7.2 km/h 14.8 km/h 61% 0.0 mm 146.00 W/m2
14:04 17.4 °C 9.6 °C 1011.9 hPa East 6.1 km/h 14.8 km/h 60% 0.0 mm 182.00 W/m2
14:09 17.7 °C 10.1 °C 1011.6 hPa East 7.2 km/h 12.2 km/h 61% 0.0 mm 206.00 W/m2
14:14 17.9 °C 9.8 °C 1011.6 hPa East 7.2 km/h 15.8 km/h 59% 0.0 mm 347.00 W/m2
14:19 18.0 °C 9.6 °C 1011.6 hPa East 8.7 km/h 15.8 km/h 58% 0.0 mm 273.00 W/m2
14:24 18.7 °C 10.0 °C 1011.5 hPa East 5.0 km/h 13.4 km/h 57% 0.0 mm 455.00 W/m2
14:29 19.5 °C 10.2 °C 1011.5 hPa ESE 6.1 km/h 12.2 km/h 55% 0.0 mm 336.00 W/m2
14:34 19.4 °C 10.4 °C 1011.5 hPa ESE 6.1 km/h 12.2 km/h 56% 0.0 mm 214.00 W/m2
14:39 19.1 °C 10.1 °C 1011.4 hPa ESE 3.5 km/h 12.2 km/h 56% 0.0 mm 214.00 W/m2
14:44 19.3 °C 10.6 °C 1011.4 hPa ESE 6.1 km/h 12.2 km/h 57% 0.0 mm 231.00 W/m2
14:49 19.1 °C 9.8 °C 1011.2 hPa ESE 7.2 km/h 13.4 km/h 55% 0.0 mm 236.00 W/m2
14:54 18.9 °C 10.2 °C 1011.2 hPa ESE 9.7 km/h 13.4 km/h 57% 0.0 mm 228.00 W/m2
14:59 18.7 °C 10.3 °C 1011.1 hPa SE 11.1 km/h 13.4 km/h 58% 0.0 mm 205.00 W/m2
15:04 18.6 °C 10.4 °C 1011.1 hPa SE 7.2 km/h 13.4 km/h 59% 0.0 mm 189.00 W/m2
15:09 18.6 °C 10.9 °C 1010.8 hPa ESE 6.1 km/h 14.8 km/h 61% 0.0 mm 323.00 W/m2
15:14 19.8 °C 11.3 °C 1010.8 hPa ESE 7.2 km/h 14.8 km/h 58% 0.0 mm 475.00 W/m2
15:19 20.9 °C 12.1 °C 1010.8 hPa SE 11.1 km/h 12.2 km/h 57% 0.0 mm 401.00 W/m2
15:24 20.9 °C 11.8 °C 1010.6 hPa SSE 9.7 km/h 12.2 km/h 56% 0.0 mm 340.00 W/m2
15:29 20.6 °C 11.8 °C 1010.8 hPa SE 7.2 km/h 13.4 km/h 57% 0.0 mm 321.00 W/m2
15:34 20.6 °C 11.8 °C 1010.5 hPa ESE 7.2 km/h 13.4 km/h 57% 0.0 mm 237.00 W/m2
15:39 20.2 °C 11.2 °C 1010.6 hPa ESE 5.0 km/h 15.8 km/h 56% 0.0 mm 215.00 W/m2
15:44 20.0 °C 10.9 °C 1010.5 hPa East 6.1 km/h 15.8 km/h 56% 0.0 mm 184.00 W/m2
15:49 19.6 °C 11.1 °C 1010.3 hPa East 2.6 km/h 12.2 km/h 58% 0.0 mm 161.00 W/m2
15:54 19.4 °C 11.2 °C 1010.3 hPa ESE 3.5 km/h 12.2 km/h 59% 0.0 mm 140.00 W/m2
15:59 19.4 °C 11.4 °C 1010.3 hPa ENE 5.0 km/h 7.2 km/h 60% 0.0 mm 119.00 W/m2
16:04 19.3 °C 11.6 °C 1010.4 hPa East 1.1 km/h 7.2 km/h 61% 0.0 mm 126.00 W/m2
16:09 19.6 °C 11.9 °C 1010.4 hPa ESE 1.1 km/h 6.1 km/h 61% 0.0 mm 132.00 W/m2
16:14 19.7 °C 12.2 °C 1010.1 hPa SE 5.0 km/h 7.2 km/h 62% 0.0 mm 153.00 W/m2
16:19 19.6 °C 12.6 °C 1010.3 hPa ESE 3.5 km/h 7.2 km/h 64% 0.0 mm 170.00 W/m2
16:24 19.7 °C 12.4 °C 1010.4 hPa ESE 2.6 km/h 7.2 km/h 63% 0.0 mm 164.00 W/m2
16:29 20.1 °C 12.1 °C 1010.3 hPa Calm   6.1 km/h 60% 0.0 mm 162.00 W/m2
16:34 20.6 °C 12.1 °C 1010.3 hPa Calm   3.5 km/h 58% 0.0 mm 140.00 W/m2
16:39 20.6 °C 11.8 °C 1010.3 hPa North 3.5 km/h 5.0 km/h 57% 0.0 mm 140.00 W/m2
16:44 20.6 °C 12.3 °C 1010.3 hPa NW 2.6 km/h 5.0 km/h 59% 0.0 mm 149.00 W/m2
16:49 20.6 °C 13.1 °C 1010.2 hPa WSW 1.1 km/h 5.0 km/h 62% 0.0 mm 146.00 W/m2
16:54 20.6 °C 13.3 °C 1010.3 hPa SW 2.6 km/h 5.0 km/h 63% 0.0 mm 132.00 W/m2
16:59 20.4 °C 13.4 °C 1010.2 hPa SW 1.1 km/h 5.0 km/h 64% 0.0 mm 116.00 W/m2
17:04 20.3 °C 13.5 °C 1010.1 hPa Calm   5.0 km/h 65% 0.0 mm 102.00 W/m2
17:09 20.0 °C 13.7 °C 1010.2 hPa SW 3.5 km/h 7.2 km/h 67% 0.0 mm 95.00 W/m2
17:14 19.4 °C 13.8 °C 1010.2 hPa SW 3.5 km/h 7.2 km/h 70% 0.0 mm 81.00 W/m2
17:19 19.0 °C 13.4 °C 1010.2 hPa SW 3.5 km/h 7.2 km/h 70% 0.0 mm 60.00 W/m2
17:24 18.8 °C 13.9 °C 1010.0 hPa SSW 6.1 km/h 7.2 km/h 73% 0.0 mm 52.00 W/m2
17:29 18.5 °C 14.0 °C 1010.0 hPa West 2.6 km/h 7.2 km/h 75% 0.0 mm 48.00 W/m2
17:34 18.3 °C 14.0 °C 1009.9 hPa NW 2.6 km/h 7.2 km/h 76% 0.0 mm 63.00 W/m2
17:39 18.1 °C 13.8 °C 1009.7 hPa NW 3.5 km/h 6.1 km/h 76% 0.0 mm 59.00 W/m2
17:44 18.1 °C 13.8 °C 1009.6 hPa North 1.1 km/h 6.1 km/h 76% 0.0 mm 54.00 W/m2
17:49 18.1 °C 13.8 °C 1009.5 hPa WNW 2.6 km/h 6.1 km/h 76% 0.0 mm 54.00 W/m2
17:54 18.1 °C 14.0 °C 1009.3 hPa Calm   5.0 km/h 77% 0.0 mm 46.00 W/m2
17:59 18.1 °C 14.0 °C 1009.2 hPa SSE 1.1 km/h 5.0 km/h 77% 0.0 mm 35.00 W/m2
18:04 18.0 °C 14.1 °C 1009.4 hPa Calm   5.0 km/h 78% 0.0 mm 28.00 W/m2
18:09 17.9 °C 13.8 °C 1009.3 hPa West 1.1 km/h 5.0 km/h 77% 0.0 mm 25.00 W/m2
18:14 17.8 °C 13.7 °C 1009.4 hPa Calm   3.5 km/h 77% 0.0 mm 17.00 W/m2
18:19 17.8 °C 13.9 °C 1009.3 hPa Calm   2.6 km/h 78% 0.0 mm 17.00 W/m2
18:24 17.8 °C 13.7 °C 1009.3 hPa North 2.6 km/h 6.1 km/h 77% 0.0 mm 16.00 W/m2
18:29 17.8 °C 13.7 °C 1009.3 hPa North 2.6 km/h 6.1 km/h 77% 0.0 mm 22.00 W/m2
18:34 18.0 °C 13.5 °C 1009.3 hPa NNE 3.5 km/h 7.2 km/h 75% 0.0 mm 25.00 W/m2
18:39 18.1 °C 13.4 °C 1009.3 hPa NNE 2.6 km/h 7.2 km/h 74% 0.0 mm 19.00 W/m2
18:44 18.3 °C 12.9 °C 1009.2 hPa North 1.1 km/h 6.1 km/h 71% 0.0 mm 18.00 W/m2
18:49 18.8 °C 12.8 °C 1009.3 hPa NNW 2.6 km/h 7.2 km/h 68% 0.0 mm 18.00 W/m2
18:54 18.8 °C 12.6 °C 1009.3 hPa North 2.6 km/h 7.2 km/h 67% 0.0 mm 20.00 W/m2
18:59 18.9 °C 12.4 °C 1009.4 hPa North 3.5 km/h 8.7 km/h 66% 0.0 mm 19.00 W/m2
19:04 19.0 °C 12.1 °C 1009.1 hPa North 3.5 km/h 8.7 km/h 64% 0.0 mm 16.00 W/m2
19:09 19.0 °C 12.1 °C 1009.3 hPa North 5.0 km/h 7.2 km/h 64% 0.0 mm 6.00 W/m2
19:14 18.9 °C 11.9 °C 1009.3 hPa NNE 6.1 km/h 11.1 km/h 64% 0.0 mm 3.00 W/m2
19:19 18.7 °C 12.0 °C 1009.3 hPa North 3.5 km/h 11.1 km/h 65% 0.0 mm 0.00 W/m2
19:22 18.5 °C 11.8 °C 1009.2 hPa North 3.5 km/h 11.1 km/h 65% 0.0 mm 0.00 W/m2
19:39 17.9 °C 11.7 °C 1009.3 hPa North 6.1 km/h 9.7 km/h 67% 0.0 mm 0.00 W/m2
19:44 17.8 °C 11.6 °C 1009.0 hPa North 5.0 km/h 9.7 km/h 67% 0.0 mm 0.00 W/m2
19:49 17.7 °C 11.7 °C 1009.0 hPa North 5.0 km/h 11.1 km/h 68% 0.0 mm 0.00 W/m2
19:54 17.6 °C 11.6 °C 1008.9 hPa North 5.0 km/h 11.1 km/h 68% 0.0 mm 0.00 W/m2
19:59 17.6 °C 11.8 °C 1009.0 hPa NNW 7.2 km/h 11.1 km/h 69% 0.0 mm 0.00 W/m2
20:04 17.5 °C 11.8 °C 1009.0 hPa NNW 5.0 km/h 11.1 km/h 69% 0.0 mm 0.00 W/m2
20:09 17.5 °C 11.6 °C 1009.0 hPa NW 8.7 km/h 13.4 km/h 68% 0.0 mm 0.00 W/m2
20:14 17.5 °C 11.1 °C 1009.0 hPa NNW 5.0 km/h 13.4 km/h 66% 0.0 mm 0.00 W/m2
20:19 17.5 °C 10.8 °C 1008.9 hPa North 5.0 km/h 13.4 km/h 65% 0.0 mm 0.00 W/m2
20:24 17.3 °C 10.4 °C 1009.2 hPa NNW 7.2 km/h 12.2 km/h 64% 0.0 mm 0.00 W/m2
20:29 17.3 °C 10.2 °C 1009.2 hPa North 6.1 km/h 12.2 km/h 63% 0.0 mm 0.00 W/m2
20:34 17.1 °C 10.0 °C 1009.0 hPa North 5.0 km/h 12.2 km/h 63% 0.0 mm 0.00 W/m2
20:39 17.1 °C 10.0 °C 1008.9 hPa North 6.1 km/h 11.1 km/h 63% 0.0 mm 0.00 W/m2
20:44 17.1 °C 10.0 °C 1009.0 hPa North 5.0 km/h 11.1 km/h 63% 0.0 mm 0.00 W/m2
20:49 17.0 °C 9.9 °C 1009.3 hPa North 3.5 km/h 9.7 km/h 63% 0.0 mm 0.00 W/m2
20:54 16.9 °C 10.3 °C 1009.1 hPa North 3.5 km/h 8.7 km/h 65% 0.0 mm 0.00 W/m2
20:59 16.8 °C 10.4 °C 1009.1 hPa North 5.0 km/h 8.7 km/h 66% 0.0 mm 0.00 W/m2
21:04 16.8 °C 10.7 °C 1009.2 hPa NNE 3.5 km/h 12.2 km/h 67% 0.0 mm 0.00 W/m2
21:09 16.8 °C 10.4 °C 1009.2 hPa NNE 7.2 km/h 12.2 km/h 66% 0.0 mm 0.00 W/m2
21:14 16.7 °C 10.3 °C 1008.9 hPa North 6.1 km/h 13.4 km/h 66% 0.0 mm 0.00 W/m2
21:19 16.7 °C 10.3 °C 1008.9 hPa NNE 6.1 km/h 13.4 km/h 66% 0.0 mm 0.00 W/m2
21:24 16.6 °C 10.2 °C 1009.1 hPa NNE 7.2 km/h 12.2 km/h 66% 0.0 mm 0.00 W/m2
21:29 16.5 °C 10.1 °C 1008.9 hPa NNE 9.7 km/h 12.2 km/h 66% 0.0 mm 0.00 W/m2
21:34 16.5 °C 10.1 °C 1008.7 hPa NE 9.7 km/h 13.4 km/h 66% 0.0 mm 0.00 W/m2
21:39 16.5 °C 10.1 °C 1008.6 hPa NE 7.2 km/h 13.4 km/h 66% 0.0 mm 0.00 W/m2
21:44 16.5 °C 10.3 °C 1008.5 hPa NE 12.2 km/h 15.8 km/h 67% 0.0 mm 0.00 W/m2
21:49 16.5 °C 10.3 °C 1008.4 hPa NE 7.2 km/h 15.8 km/h 67% 0.0 mm 0.00 W/m2
21:54 16.3 °C 10.4 °C 1008.1 hPa NNE 6.1 km/h 15.8 km/h 68% 0.0 mm 0.00 W/m2
21:59 16.2 °C 10.5 °C 1008.1 hPa NNE 5.0 km/h 12.2 km/h 69% 0.0 mm 0.00 W/m2
22:04 16.2 °C 10.9 °C 1007.9 hPa NE 5.0 km/h 8.7 km/h 71% 0.0 mm 0.00 W/m2
22:09 16.1 °C 11.1 °C 1007.9 hPa NE 3.5 km/h 8.7 km/h 72% 0.0 mm 0.00 W/m2
22:14 16.0 °C 10.9 °C 1007.7 hPa NE 3.5 km/h 8.7 km/h 72% 0.0 mm 0.00 W/m2
22:19 15.9 °C 11.1 °C 1007.7 hPa Calm   7.2 km/h 73% 0.0 mm 0.00 W/m2
22:24 15.9 °C 11.3 °C 1007.5 hPa NNE 2.6 km/h 8.7 km/h 74% 0.0 mm 0.00 W/m2
22:29 16.0 °C 11.4 °C 1007.5 hPa North 3.5 km/h 8.7 km/h 74% 0.0 mm 0.00 W/m2
22:34 16.0 °C 11.4 °C 1007.2 hPa North 5.0 km/h 11.1 km/h 74% 0.0 mm 0.00 W/m2
22:39 16.0 °C 11.6 °C 1007.0 hPa NNE 7.2 km/h 13.4 km/h 75% 0.0 mm 0.00 W/m2
22:44 16.1 °C 11.7 °C 1007.0 hPa North 6.1 km/h 15.8 km/h 75% 0.0 mm 0.00 W/m2
22:49 16.1 °C 11.7 °C 1006.9 hPa NNE 11.1 km/h 15.8 km/h 75% 0.0 mm 0.00 W/m2
22:54 16.2 °C 11.8 °C 1006.6 hPa NNE 6.1 km/h 17.2 km/h 75% 0.0 mm 0.00 W/m2
22:59 16.4 °C 11.9 °C 1006.8 hPa NNE 9.7 km/h 19.5 km/h 75% 0.0 mm 0.00 W/m2
23:04 16.4 °C 11.9 °C 1006.7 hPa NNE 9.7 km/h 19.5 km/h 75% 0.0 mm 0.00 W/m2
23:09 16.5 °C 12.1 °C 1006.6 hPa NNE 8.7 km/h 17.2 km/h 75% 0.0 mm 0.00 W/m2
23:14 16.6 °C 12.2 °C 1006.4 hPa NNE 6.1 km/h 25.6 km/h 75% 0.0 mm 0.00 W/m2
23:19 16.6 °C 12.2 °C 1006.3 hPa NNE 9.7 km/h 25.6 km/h 75% 0.0 mm 0.00 W/m2
23:24 16.7 °C 12.3 °C 1006.1 hPa NNE 14.8 km/h 27.0 km/h 75% 0.0 mm 0.00 W/m2
23:29 16.7 °C 12.3 °C 1006.1 hPa NE 12.2 km/h 27.0 km/h 75% 0.0 mm 0.00 W/m2
23:34 16.7 °C 12.3 °C 1006.1 hPa NNE 11.1 km/h 23.3 km/h 75% 0.0 mm 0.00 W/m2
23:39 16.6 °C 12.2 °C 1005.9 hPa NNE 12.2 km/h 21.9 km/h 75% 0.0 mm 0.00 W/m2
23:44 16.6 °C 12.2 °C 1005.8 hPa NE 9.7 km/h 21.9 km/h 75% 0.0 mm 0.00 W/m2
23:49 16.6 °C 12.2 °C 1005.5 hPa NE 8.7 km/h 21.9 km/h 75% 0.0 mm 0.00 W/m2
23:54 16.6 °C 12.2 °C 1005.5 hPa NE 7.2 km/h 19.5 km/h 75% 0.0 mm 0.00 W/m2
23:59 16.5 °C 12.1 °C 1005.6 hPa NE 3.5 km/h 19.5 km/h 75% 0.0 mm 0.00 W/m2
Northern Hawkes Bay. New Zealand Historic Data
Compliments of Weather Underground - 2 mb